sensor_id;sensor_type;location;lat;lon;timestamp;P1;durP1;ratioP1;P2;durP2;ratioP2
12356;SDS011;6243;51.244;6.774;2024-02-15T00:02:14;6.03;;;4.57;;
12356;SDS011;6243;51.244;6.774;2024-02-15T00:04:39;6.57;;;4.20;;
12356;SDS011;6243;51.244;6.774;2024-02-15T00:07:05;5.27;;;4.10;;
12356;SDS011;6243;51.244;6.774;2024-02-15T00:09:30;7.10;;;4.40;;
12356;SDS011;6243;51.244;6.774;2024-02-15T00:11:56;7.97;;;4.90;;
12356;SDS011;6243;51.244;6.774;2024-02-15T00:14:21;6.37;;;4.27;;
12356;SDS011;6243;51.244;6.774;2024-02-15T00:16:47;6.47;;;4.33;;
12356;SDS011;6243;51.244;6.774;2024-02-15T00:19:14;5.57;;;4.43;;
12356;SDS011;6243;51.244;6.774;2024-02-15T00:21:42;8.77;;;4.33;;
12356;SDS011;6243;51.244;6.774;2024-02-15T00:24:08;9.40;;;4.43;;
12356;SDS011;6243;51.244;6.774;2024-02-15T00:26:33;8.33;;;4.73;;
12356;SDS011;6243;51.244;6.774;2024-02-15T00:28:59;8.93;;;4.90;;
12356;SDS011;6243;51.244;6.774;2024-02-15T00:31:24;6.03;;;4.57;;
12356;SDS011;6243;51.244;6.774;2024-02-15T00:33:50;8.90;;;4.77;;
12356;SDS011;6243;51.244;6.774;2024-02-15T00:36:16;7.47;;;4.43;;
12356;SDS011;6243;51.244;6.774;2024-02-15T00:38:42;8.57;;;5.20;;
12356;SDS011;6243;51.244;6.774;2024-02-15T00:41:07;8.43;;;5.33;;
12356;SDS011;6243;51.244;6.774;2024-02-15T00:43:34;9.37;;;5.00;;
12356;SDS011;6243;51.244;6.774;2024-02-15T00:45:59;8.17;;;5.37;;
12356;SDS011;6243;51.244;6.774;2024-02-15T00:48:25;6.80;;;5.37;;
12356;SDS011;6243;51.244;6.774;2024-02-15T00:50:50;9.30;;;4.60;;
12356;SDS011;6243;51.244;6.774;2024-02-15T00:53:17;10.97;;;5.20;;
12356;SDS011;6243;51.244;6.774;2024-02-15T00:55:43;6.70;;;4.27;;
12356;SDS011;6243;51.244;6.774;2024-02-15T00:58:08;8.73;;;4.83;;
12356;SDS011;6243;51.244;6.774;2024-02-15T01:00:34;8.47;;;4.40;;
12356;SDS011;6243;51.244;6.774;2024-02-15T01:02:59;8.27;;;4.53;;
12356;SDS011;6243;51.244;6.774;2024-02-15T01:05:25;7.83;;;4.50;;
12356;SDS011;6243;51.244;6.774;2024-02-15T01:07:50;5.93;;;4.30;;
12356;SDS011;6243;51.244;6.774;2024-02-15T01:10:17;6.17;;;4.13;;
12356;SDS011;6243;51.244;6.774;2024-02-15T01:12:43;11.30;;;4.73;;
12356;SDS011;6243;51.244;6.774;2024-02-15T01:15:09;9.93;;;4.50;;
12356;SDS011;6243;51.244;6.774;2024-02-15T01:17:34;8.70;;;5.13;;
12356;SDS011;6243;51.244;6.774;2024-02-15T01:20:00;10.63;;;4.40;;
12356;SDS011;6243;51.244;6.774;2024-02-15T01:22:25;9.93;;;4.70;;
12356;SDS011;6243;51.244;6.774;2024-02-15T01:24:51;8.27;;;4.57;;
12356;SDS011;6243;51.244;6.774;2024-02-15T01:27:18;8.27;;;5.03;;
12356;SDS011;6243;51.244;6.774;2024-02-15T01:29:43;7.60;;;4.40;;
12356;SDS011;6243;51.244;6.774;2024-02-15T01:32:09;9.13;;;4.03;;
12356;SDS011;6243;51.244;6.774;2024-02-15T01:34:34;11.20;;;4.73;;
12356;SDS011;6243;51.244;6.774;2024-02-15T01:37:00;10.87;;;4.23;;
12356;SDS011;6243;51.244;6.774;2024-02-15T01:39:25;10.30;;;4.60;;
12356;SDS011;6243;51.244;6.774;2024-02-15T01:41:51;11.33;;;4.13;;
12356;SDS011;6243;51.244;6.774;2024-02-15T01:44:18;8.63;;;4.60;;
12356;SDS011;6243;51.244;6.774;2024-02-15T01:46:43;8.07;;;4.03;;
12356;SDS011;6243;51.244;6.774;2024-02-15T01:49:09;8.90;;;4.03;;
12356;SDS011;6243;51.244;6.774;2024-02-15T01:51:35;8.10;;;4.20;;
12356;SDS011;6243;51.244;6.774;2024-02-15T01:54:01;8.97;;;4.00;;
12356;SDS011;6243;51.244;6.774;2024-02-15T01:56:27;9.17;;;3.70;;
12356;SDS011;6243;51.244;6.774;2024-02-15T01:58:53;9.63;;;3.80;;
12356;SDS011;6243;51.244;6.774;2024-02-15T02:01:20;9.10;;;4.30;;
12356;SDS011;6243;51.244;6.774;2024-02-15T02:03:47;7.90;;;4.17;;
12356;SDS011;6243;51.244;6.774;2024-02-15T02:06:12;9.10;;;4.20;;
12356;SDS011;6243;51.244;6.774;2024-02-15T02:08:38;6.33;;;3.70;;
12356;SDS011;6243;51.244;6.774;2024-02-15T02:11:04;6.20;;;3.43;;
12356;SDS011;6243;51.244;6.774;2024-02-15T02:13:30;6.70;;;3.20;;
12356;SDS011;6243;51.244;6.774;2024-02-15T02:15:56;9.97;;;3.90;;
12356;SDS011;6243;51.244;6.774;2024-02-15T02:18:22;9.77;;;3.50;;
12356;SDS011;6243;51.244;6.774;2024-02-15T02:20:48;7.83;;;3.23;;
12356;SDS011;6243;51.244;6.774;2024-02-15T02:23:14;9.50;;;3.27;;
12356;SDS011;6243;51.244;6.774;2024-02-15T02:25:42;8.03;;;3.20;;
12356;SDS011;6243;51.244;6.774;2024-02-15T02:28:08;6.23;;;3.20;;
12356;SDS011;6243;51.244;6.774;2024-02-15T02:30:34;5.53;;;3.43;;
12356;SDS011;6243;51.244;6.774;2024-02-15T02:33:00;9.63;;;4.00;;
12356;SDS011;6243;51.244;6.774;2024-02-15T02:35:25;7.10;;;3.37;;
12356;SDS011;6243;51.244;6.774;2024-02-15T02:37:51;7.53;;;3.33;;
12356;SDS011;6243;51.244;6.774;2024-02-15T02:40:17;7.47;;;4.00;;
12356;SDS011;6243;51.244;6.774;2024-02-15T02:42:51;5.23;;;3.50;;
12356;SDS011;6243;51.244;6.774;2024-02-15T02:45:18;7.80;;;3.17;;
12356;SDS011;6243;51.244;6.774;2024-02-15T02:47:44;6.13;;;3.00;;
12356;SDS011;6243;51.244;6.774;2024-02-15T02:50:10;8.77;;;3.50;;
12356;SDS011;6243;51.244;6.774;2024-02-15T02:52:35;8.00;;;3.63;;
12356;SDS011;6243;51.244;6.774;2024-02-15T02:55:01;6.87;;;3.30;;
12356;SDS011;6243;51.244;6.774;2024-02-15T02:57:26;6.67;;;3.30;;
12356;SDS011;6243;51.244;6.774;2024-02-15T02:59:53;7.63;;;3.40;;
12356;SDS011;6243;51.244;6.774;2024-02-15T03:02:18;4.57;;;2.73;;
12356;SDS011;6243;51.244;6.774;2024-02-15T03:04:44;7.13;;;3.50;;
12356;SDS011;6243;51.244;6.774;2024-02-15T03:07:09;7.10;;;3.00;;
12356;SDS011;6243;51.244;6.774;2024-02-15T03:09:35;5.67;;;3.33;;
12356;SDS011;6243;51.244;6.774;2024-02-15T03:12:00;8.17;;;3.53;;
12356;SDS011;6243;51.244;6.774;2024-02-15T03:14:26;6.43;;;3.20;;
12356;SDS011;6243;51.244;6.774;2024-02-15T03:16:54;6.37;;;3.43;;
12356;SDS011;6243;51.244;6.774;2024-02-15T03:19:20;7.43;;;3.53;;
12356;SDS011;6243;51.244;6.774;2024-02-15T03:21:46;9.13;;;3.20;;
12356;SDS011;6243;51.244;6.774;2024-02-15T03:24:11;5.90;;;3.23;;
12356;SDS011;6243;51.244;6.774;2024-02-15T03:26:37;6.90;;;3.33;;
12356;SDS011;6243;51.244;6.774;2024-02-15T03:29:03;8.10;;;4.03;;
12356;SDS011;6243;51.244;6.774;2024-02-15T03:31:28;6.03;;;3.73;;
12356;SDS011;6243;51.244;6.774;2024-02-15T03:33:55;8.10;;;4.10;;
12356;SDS011;6243;51.244;6.774;2024-02-15T03:36:21;4.53;;;3.53;;
12356;SDS011;6243;51.244;6.774;2024-02-15T03:38:46;9.40;;;4.30;;
12356;SDS011;6243;51.244;6.774;2024-02-15T03:41:12;7.13;;;4.00;;
12356;SDS011;6243;51.244;6.774;2024-02-15T03:43:37;9.17;;;4.20;;
12356;SDS011;6243;51.244;6.774;2024-02-15T03:46:03;8.17;;;4.30;;
12356;SDS011;6243;51.244;6.774;2024-02-15T03:48:28;9.17;;;4.00;;
12356;SDS011;6243;51.244;6.774;2024-02-15T03:50:55;6.73;;;3.83;;
12356;SDS011;6243;51.244;6.774;2024-02-15T03:53:21;6.33;;;3.87;;
12356;SDS011;6243;51.244;6.774;2024-02-15T03:55:46;5.13;;;3.63;;
12356;SDS011;6243;51.244;6.774;2024-02-15T03:58:12;7.03;;;3.73;;
12356;SDS011;6243;51.244;6.774;2024-02-15T04:00:37;4.67;;;3.37;;
12356;SDS011;6243;51.244;6.774;2024-02-15T04:03:03;4.93;;;3.70;;
12356;SDS011;6243;51.244;6.774;2024-02-15T04:05:29;6.73;;;3.97;;
12356;SDS011;6243;51.244;6.774;2024-02-15T04:07:56;4.00;;;3.23;;
12356;SDS011;6243;51.244;6.774;2024-02-15T04:10:21;7.57;;;3.70;;
12356;SDS011;6243;51.244;6.774;2024-02-15T04:12:47;4.67;;;3.10;;
12356;SDS011;6243;51.244;6.774;2024-02-15T04:15:13;5.00;;;3.67;;
12356;SDS011;6243;51.244;6.774;2024-02-15T04:17:38;5.30;;;3.30;;
12356;SDS011;6243;51.244;6.774;2024-02-15T04:20:04;4.93;;;3.30;;
12356;SDS011;6243;51.244;6.774;2024-02-15T04:22:30;6.40;;;3.90;;
12356;SDS011;6243;51.244;6.774;2024-02-15T04:24:57;4.30;;;3.70;;
12356;SDS011;6243;51.244;6.774;2024-02-15T04:27:23;8.43;;;3.83;;
12356;SDS011;6243;51.244;6.774;2024-02-15T04:29:48;6.10;;;3.77;;
12356;SDS011;6243;51.244;6.774;2024-02-15T04:32:13;7.13;;;3.90;;
12356;SDS011;6243;51.244;6.774;2024-02-15T04:34:39;4.90;;;3.73;;
12356;SDS011;6243;51.244;6.774;2024-02-15T04:37:05;6.37;;;4.20;;
12356;SDS011;6243;51.244;6.774;2024-02-15T04:39:30;4.17;;;3.60;;
12356;SDS011;6243;51.244;6.774;2024-02-15T04:41:57;5.07;;;3.97;;
12356;SDS011;6243;51.244;6.774;2024-02-15T04:44:23;6.60;;;3.87;;
12356;SDS011;6243;51.244;6.774;2024-02-15T04:46:48;8.13;;;4.30;;
12356;SDS011;6243;51.244;6.774;2024-02-15T04:49:14;4.33;;;3.87;;
12356;SDS011;6243;51.244;6.774;2024-02-15T04:51:39;5.20;;;4.00;;
12356;SDS011;6243;51.244;6.774;2024-02-15T04:54:05;4.73;;;3.97;;
12356;SDS011;6243;51.244;6.774;2024-02-15T04:56:30;4.30;;;3.53;;
12356;SDS011;6243;51.244;6.774;2024-02-15T04:58:57;4.50;;;3.80;;
12356;SDS011;6243;51.244;6.774;2024-02-15T05:01:23;6.37;;;3.30;;
12356;SDS011;6243;51.244;6.774;2024-02-15T05:03:48;5.33;;;3.77;;
12356;SDS011;6243;51.244;6.774;2024-02-15T05:06:14;5.17;;;3.87;;
12356;SDS011;6243;51.244;6.774;2024-02-15T05:08:39;4.43;;;3.50;;
12356;SDS011;6243;51.244;6.774;2024-02-15T05:11:05;3.87;;;3.43;;
12356;SDS011;6243;51.244;6.774;2024-02-15T05:13:30;3.93;;;3.53;;
12356;SDS011;6243;51.244;6.774;2024-02-15T05:15:57;5.47;;;3.70;;
12356;SDS011;6243;51.244;6.774;2024-02-15T05:18:23;6.20;;;3.77;;
12356;SDS011;6243;51.244;6.774;2024-02-15T05:20:48;4.67;;;3.40;;
12356;SDS011;6243;51.244;6.774;2024-02-15T05:23:14;5.40;;;3.10;;
12356;SDS011;6243;51.244;6.774;2024-02-15T05:25:39;3.77;;;3.33;;
12356;SDS011;6243;51.244;6.774;2024-02-15T05:28:05;5.50;;;4.00;;
12356;SDS011;6243;51.244;6.774;2024-02-15T05:30:30;5.43;;;3.50;;
12356;SDS011;6243;51.244;6.774;2024-02-15T05:32:57;4.63;;;3.60;;
12356;SDS011;6243;51.244;6.774;2024-02-15T05:35:23;4.33;;;3.43;;
12356;SDS011;6243;51.244;6.774;2024-02-15T05:37:48;6.33;;;3.80;;
12356;SDS011;6243;51.244;6.774;2024-02-15T05:40:14;4.60;;;3.87;;
12356;SDS011;6243;51.244;6.774;2024-02-15T05:42:39;4.33;;;3.63;;
12356;SDS011;6243;51.244;6.774;2024-02-15T05:45:14;8.63;;;3.67;;
12356;SDS011;6243;51.244;6.774;2024-02-15T05:47:53;6.20;;;3.20;;
12356;SDS011;6243;51.244;6.774;2024-02-15T05:50:20;7.30;;;3.70;;
12356;SDS011;6243;51.244;6.774;2024-02-15T05:52:46;5.33;;;3.40;;
12356;SDS011;6243;51.244;6.774;2024-02-15T05:55:12;4.67;;;3.33;;
12356;SDS011;6243;51.244;6.774;2024-02-15T05:57:38;5.00;;;3.40;;
12356;SDS011;6243;51.244;6.774;2024-02-15T06:00:04;9.17;;;3.03;;
12356;SDS011;6243;51.244;6.774;2024-02-15T06:02:30;5.97;;;3.30;;
12356;SDS011;6243;51.244;6.774;2024-02-15T06:04:56;5.70;;;3.23;;
12356;SDS011;6243;51.244;6.774;2024-02-15T06:07:23;5.80;;;3.47;;
12356;SDS011;6243;51.244;6.774;2024-02-15T06:09:48;7.80;;;3.30;;
12356;SDS011;6243;51.244;6.774;2024-02-15T06:12:13;6.53;;;3.23;;
12356;SDS011;6243;51.244;6.774;2024-02-15T06:14:39;5.23;;;3.50;;
12356;SDS011;6243;51.244;6.774;2024-02-15T06:17:04;5.60;;;3.23;;
12356;SDS011;6243;51.244;6.774;2024-02-15T06:19:30;5.40;;;3.20;;
12356;SDS011;6243;51.244;6.774;2024-02-15T06:21:56;6.73;;;3.40;;
12356;SDS011;6243;51.244;6.774;2024-02-15T06:24:22;4.40;;;3.23;;
12356;SDS011;6243;51.244;6.774;2024-02-15T06:26:48;4.40;;;3.23;;
12356;SDS011;6243;51.244;6.774;2024-02-15T06:29:13;4.50;;;3.27;;
12356;SDS011;6243;51.244;6.774;2024-02-15T06:31:39;6.80;;;3.60;;
12356;SDS011;6243;51.244;6.774;2024-02-15T06:34:04;3.83;;;3.43;;
12356;SDS011;6243;51.244;6.774;2024-02-15T06:36:30;4.70;;;3.50;;
12356;SDS011;6243;51.244;6.774;2024-02-15T06:38:56;6.63;;;3.73;;
12356;SDS011;6243;51.244;6.774;2024-02-15T06:41:23;5.80;;;3.20;;
12356;SDS011;6243;51.244;6.774;2024-02-15T06:43:48;7.10;;;3.23;;
12356;SDS011;6243;51.244;6.774;2024-02-15T06:46:14;4.70;;;3.23;;
12356;SDS011;6243;51.244;6.774;2024-02-15T06:48:41;5.53;;;3.20;;
12356;SDS011;6243;51.244;6.774;2024-02-15T06:51:07;4.30;;;2.83;;
12356;SDS011;6243;51.244;6.774;2024-02-15T06:53:32;5.43;;;3.43;;
12356;SDS011;6243;51.244;6.774;2024-02-15T06:55:58;6.03;;;3.60;;
12356;SDS011;6243;51.244;6.774;2024-02-15T06:58:24;7.27;;;3.40;;
12356;SDS011;6243;51.244;6.774;2024-02-15T07:00:50;5.90;;;3.43;;
12356;SDS011;6243;51.244;6.774;2024-02-15T07:03:15;7.07;;;3.30;;
12356;SDS011;6243;51.244;6.774;2024-02-15T07:05:41;6.17;;;3.53;;
12356;SDS011;6243;51.244;6.774;2024-02-15T07:08:07;6.93;;;3.97;;
12356;SDS011;6243;51.244;6.774;2024-02-15T07:10:33;9.43;;;3.40;;
12356;SDS011;6243;51.244;6.774;2024-02-15T07:12:58;6.83;;;3.30;;
12356;SDS011;6243;51.244;6.774;2024-02-15T07:15:25;6.50;;;3.27;;
12356;SDS011;6243;51.244;6.774;2024-02-15T07:17:51;5.33;;;2.90;;
12356;SDS011;6243;51.244;6.774;2024-02-15T07:20:16;8.70;;;3.67;;
12356;SDS011;6243;51.244;6.774;2024-02-15T07:22:42;7.07;;;3.10;;
12356;SDS011;6243;51.244;6.774;2024-02-15T07:25:07;4.47;;;3.53;;
12356;SDS011;6243;51.244;6.774;2024-02-15T07:27:33;6.37;;;3.07;;
12356;SDS011;6243;51.244;6.774;2024-02-15T07:29:58;8.53;;;3.40;;
12356;SDS011;6243;51.244;6.774;2024-02-15T07:32:25;7.50;;;3.20;;
12356;SDS011;6243;51.244;6.774;2024-02-15T07:34:51;7.90;;;3.33;;
12356;SDS011;6243;51.244;6.774;2024-02-15T07:37:16;7.10;;;3.43;;
12356;SDS011;6243;51.244;6.774;2024-02-15T07:39:42;8.00;;;3.70;;
12356;SDS011;6243;51.244;6.774;2024-02-15T07:42:07;6.40;;;3.53;;
12356;SDS011;6243;51.244;6.774;2024-02-15T07:44:33;6.00;;;3.60;;
12356;SDS011;6243;51.244;6.774;2024-02-15T07:46:58;6.27;;;3.87;;
12356;SDS011;6243;51.244;6.774;2024-02-15T07:49:25;5.73;;;3.73;;
12356;SDS011;6243;51.244;6.774;2024-02-15T07:51:51;6.60;;;4.17;;
12356;SDS011;6243;51.244;6.774;2024-02-15T07:54:17;7.83;;;3.90;;
12356;SDS011;6243;51.244;6.774;2024-02-15T07:56:42;4.77;;;3.60;;
12356;SDS011;6243;51.244;6.774;2024-02-15T07:59:08;7.33;;;3.97;;
12356;SDS011;6243;51.244;6.774;2024-02-15T08:01:33;6.73;;;3.93;;
12356;SDS011;6243;51.244;6.774;2024-02-15T08:03:58;7.50;;;4.13;;
12356;SDS011;6243;51.244;6.774;2024-02-15T08:06:25;5.80;;;3.73;;
12356;SDS011;6243;51.244;6.774;2024-02-15T08:08:51;8.70;;;4.00;;
12356;SDS011;6243;51.244;6.774;2024-02-15T08:11:16;6.60;;;3.70;;
12356;SDS011;6243;51.244;6.774;2024-02-15T08:13:45;6.43;;;4.13;;
12356;SDS011;6243;51.244;6.774;2024-02-15T08:16:11;5.50;;;3.53;;
12356;SDS011;6243;51.244;6.774;2024-02-15T08:18:36;7.30;;;3.83;;
12356;SDS011;6243;51.244;6.774;2024-02-15T08:21:02;10.00;;;4.57;;
12356;SDS011;6243;51.244;6.774;2024-02-15T08:23:30;6.87;;;4.10;;
12356;SDS011;6243;51.244;6.774;2024-02-15T08:25:55;10.00;;;4.70;;
12356;SDS011;6243;51.244;6.774;2024-02-15T08:28:21;6.13;;;4.07;;
12356;SDS011;6243;51.244;6.774;2024-02-15T08:30:46;7.73;;;4.80;;
12356;SDS011;6243;51.244;6.774;2024-02-15T08:33:12;5.57;;;4.00;;
12356;SDS011;6243;51.244;6.774;2024-02-15T08:35:37;6.13;;;4.13;;
12356;SDS011;6243;51.244;6.774;2024-02-15T08:38:03;8.30;;;4.47;;
12356;SDS011;6243;51.244;6.774;2024-02-15T08:40:30;6.23;;;3.73;;
12356;SDS011;6243;51.244;6.774;2024-02-15T08:42:55;8.33;;;4.90;;
12356;SDS011;6243;51.244;6.774;2024-02-15T08:45:21;9.00;;;3.97;;
12356;SDS011;6243;51.244;6.774;2024-02-15T08:47:47;7.67;;;3.90;;
12356;SDS011;6243;51.244;6.774;2024-02-15T08:50:12;7.13;;;4.37;;
12356;SDS011;6243;51.244;6.774;2024-02-15T08:52:38;8.53;;;3.60;;
12356;SDS011;6243;51.244;6.774;2024-02-15T08:55:05;9.13;;;3.80;;
12356;SDS011;6243;51.244;6.774;2024-02-15T08:57:32;8.93;;;4.07;;
12356;SDS011;6243;51.244;6.774;2024-02-15T08:59:57;6.07;;;3.57;;
12356;SDS011;6243;51.244;6.774;2024-02-15T09:02:23;7.90;;;4.10;;
12356;SDS011;6243;51.244;6.774;2024-02-15T09:04:48;11.93;;;3.97;;
12356;SDS011;6243;51.244;6.774;2024-02-15T09:07:14;8.63;;;4.30;;
12356;SDS011;6243;51.244;6.774;2024-02-15T09:09:39;7.67;;;3.57;;
12356;SDS011;6243;51.244;6.774;2024-02-15T09:12:05;7.97;;;3.70;;
12356;SDS011;6243;51.244;6.774;2024-02-15T09:14:33;9.10;;;4.03;;
12356;SDS011;6243;51.244;6.774;2024-02-15T09:16:59;5.80;;;3.93;;
12356;SDS011;6243;51.244;6.774;2024-02-15T09:19:25;7.07;;;3.97;;
12356;SDS011;6243;51.244;6.774;2024-02-15T09:21:50;7.33;;;4.30;;
12356;SDS011;6243;51.244;6.774;2024-02-15T09:24:16;7.57;;;4.30;;
12356;SDS011;6243;51.244;6.774;2024-02-15T09:26:41;7.07;;;3.60;;
12356;SDS011;6243;51.244;6.774;2024-02-15T09:29:07;7.03;;;3.77;;
12356;SDS011;6243;51.244;6.774;2024-02-15T09:31:34;8.17;;;4.20;;
12356;SDS011;6243;51.244;6.774;2024-02-15T09:33:59;7.87;;;4.43;;
12356;SDS011;6243;51.244;6.774;2024-02-15T09:36:25;9.33;;;4.13;;
12356;SDS011;6243;51.244;6.774;2024-02-15T09:38:51;7.10;;;4.13;;
12356;SDS011;6243;51.244;6.774;2024-02-15T09:41:16;5.30;;;3.93;;
12356;SDS011;6243;51.244;6.774;2024-02-15T09:43:42;7.63;;;4.37;;
12356;SDS011;6243;51.244;6.774;2024-02-15T09:46:08;7.10;;;3.97;;
12356;SDS011;6243;51.244;6.774;2024-02-15T09:48:34;7.13;;;4.07;;
12356;SDS011;6243;51.244;6.774;2024-02-15T09:51:00;4.80;;;3.87;;
12356;SDS011;6243;51.244;6.774;2024-02-15T09:53:26;4.00;;;3.60;;
12356;SDS011;6243;51.244;6.774;2024-02-15T09:55:53;6.13;;;3.90;;
12356;SDS011;6243;51.244;6.774;2024-02-15T09:58:19;5.97;;;4.40;;
12356;SDS011;6243;51.244;6.774;2024-02-15T10:00:44;5.83;;;4.00;;
12356;SDS011;6243;51.244;6.774;2024-02-15T10:03:10;7.43;;;3.70;;
12356;SDS011;6243;51.244;6.774;2024-02-15T10:05:40;6.07;;;3.80;;
12356;SDS011;6243;51.244;6.774;2024-02-15T10:08:07;6.00;;;3.43;;
12356;SDS011;6243;51.244;6.774;2024-02-15T10:10:32;7.27;;;4.00;;
12356;SDS011;6243;51.244;6.774;2024-02-15T10:12:58;8.77;;;3.83;;
12356;SDS011;6243;51.244;6.774;2024-02-15T10:15:26;6.67;;;3.73;;
12356;SDS011;6243;51.244;6.774;2024-02-15T10:17:53;6.50;;;4.00;;
12356;SDS011;6243;51.244;6.774;2024-02-15T10:20:19;6.30;;;3.30;;
12356;SDS011;6243;51.244;6.774;2024-02-15T10:22:46;7.57;;;3.90;;
12356;SDS011;6243;51.244;6.774;2024-02-15T10:25:12;7.83;;;4.13;;
12356;SDS011;6243;51.244;6.774;2024-02-15T10:27:38;6.53;;;3.20;;
12356;SDS011;6243;51.244;6.774;2024-02-15T10:30:13;4.83;;;3.23;;
12356;SDS011;6243;51.244;6.774;2024-02-15T10:32:40;8.57;;;3.90;;
12356;SDS011;6243;51.244;6.774;2024-02-15T10:35:06;6.30;;;3.30;;
12356;SDS011;6243;51.244;6.774;2024-02-15T10:37:32;6.03;;;3.50;;
12356;SDS011;6243;51.244;6.774;2024-02-15T10:40:05;7.53;;;3.20;;
12356;SDS011;6243;51.244;6.774;2024-02-15T10:42:31;8.73;;;3.10;;
12356;SDS011;6243;51.244;6.774;2024-02-15T10:44:58;4.33;;;3.10;;
12356;SDS011;6243;51.244;6.774;2024-02-15T10:47:24;5.53;;;3.07;;
12356;SDS011;6243;51.244;6.774;2024-02-15T10:49:50;7.40;;;3.87;;
12356;SDS011;6243;51.244;6.774;2024-02-15T10:52:16;6.57;;;3.50;;
12356;SDS011;6243;51.244;6.774;2024-02-15T10:54:46;8.70;;;3.60;;
12356;SDS011;6243;51.244;6.774;2024-02-15T10:57:19;6.83;;;3.23;;
12356;SDS011;6243;51.244;6.774;2024-02-15T10:59:49;4.57;;;3.00;;
12356;SDS011;6243;51.244;6.774;2024-02-15T11:02:29;6.03;;;3.03;;
12356;SDS011;6243;51.244;6.774;2024-02-15T11:04:55;5.10;;;3.00;;
12356;SDS011;6243;51.244;6.774;2024-02-15T11:07:26;5.57;;;3.10;;
12356;SDS011;6243;51.244;6.774;2024-02-15T11:09:52;8.40;;;3.73;;
12356;SDS011;6243;51.244;6.774;2024-02-15T11:12:19;5.37;;;3.07;;
12356;SDS011;6243;51.244;6.774;2024-02-15T11:14:45;5.10;;;3.00;;
12356;SDS011;6243;51.244;6.774;2024-02-15T11:17:11;5.87;;;3.20;;
12356;SDS011;6243;51.244;6.774;2024-02-15T11:19:56;5.93;;;3.03;;
12356;SDS011;6243;51.244;6.774;2024-02-15T11:22:22;6.73;;;3.00;;
12356;SDS011;6243;51.244;6.774;2024-02-15T11:24:49;6.97;;;3.17;;
12356;SDS011;6243;51.244;6.774;2024-02-15T11:27:26;5.43;;;2.90;;
12356;SDS011;6243;51.244;6.774;2024-02-15T11:29:52;5.73;;;2.70;;
12356;SDS011;6243;51.244;6.774;2024-02-15T11:32:35;7.40;;;3.00;;
12356;SDS011;6243;51.244;6.774;2024-02-15T11:35:05;3.90;;;2.60;;
12356;SDS011;6243;51.244;6.774;2024-02-15T11:37:50;6.83;;;3.00;;
12356;SDS011;6243;51.244;6.774;2024-02-15T11:40:17;5.87;;;2.77;;
12356;SDS011;6243;51.244;6.774;2024-02-15T11:42:45;6.47;;;2.73;;
12356;SDS011;6243;51.244;6.774;2024-02-15T11:45:11;5.93;;;2.83;;
12356;SDS011;6243;51.244;6.774;2024-02-15T11:47:37;4.77;;;2.67;;
12356;SDS011;6243;51.244;6.774;2024-02-15T11:50:05;5.70;;;2.50;;
12356;SDS011;6243;51.244;6.774;2024-02-15T11:52:32;6.63;;;2.40;;
12356;SDS011;6243;51.244;6.774;2024-02-15T11:55:04;5.93;;;2.50;;
12356;SDS011;6243;51.244;6.774;2024-02-15T11:57:30;5.00;;;2.13;;
12356;SDS011;6243;51.244;6.774;2024-02-15T11:59:56;5.37;;;2.37;;
12356;SDS011;6243;51.244;6.774;2024-02-15T12:02:22;3.43;;;2.33;;
12356;SDS011;6243;51.244;6.774;2024-02-15T12:04:48;4.30;;;2.37;;
12356;SDS011;6243;51.244;6.774;2024-02-15T12:07:13;6.63;;;2.67;;
12356;SDS011;6243;51.244;6.774;2024-02-15T12:09:39;5.77;;;2.60;;
12356;SDS011;6243;51.244;6.774;2024-02-15T12:12:04;4.90;;;2.33;;
12356;SDS011;6243;51.244;6.774;2024-02-15T12:14:30;4.37;;;2.20;;
12356;SDS011;6243;51.244;6.774;2024-02-15T12:17:01;5.33;;;2.30;;
12356;SDS011;6243;51.244;6.774;2024-02-15T12:19:27;4.43;;;2.50;;
12356;SDS011;6243;51.244;6.774;2024-02-15T12:21:53;6.73;;;2.43;;
12356;SDS011;6243;51.244;6.774;2024-02-15T12:24:21;6.50;;;2.33;;
12356;SDS011;6243;51.244;6.774;2024-02-15T12:26:48;8.43;;;2.40;;
12356;SDS011;6243;51.244;6.774;2024-02-15T12:29:16;5.73;;;2.27;;
12356;SDS011;6243;51.244;6.774;2024-02-15T12:31:42;6.07;;;2.47;;
12356;SDS011;6243;51.244;6.774;2024-02-15T12:34:10;6.17;;;2.40;;
12356;SDS011;6243;51.244;6.774;2024-02-15T12:36:36;4.07;;;2.40;;
12356;SDS011;6243;51.244;6.774;2024-02-15T12:39:02;2.50;;;2.10;;
12356;SDS011;6243;51.244;6.774;2024-02-15T12:41:28;4.77;;;2.33;;
12356;SDS011;6243;51.244;6.774;2024-02-15T12:43:53;5.20;;;2.43;;
12356;SDS011;6243;51.244;6.774;2024-02-15T12:46:19;5.10;;;2.30;;
12356;SDS011;6243;51.244;6.774;2024-02-15T12:48:45;4.53;;;2.27;;
12356;SDS011;6243;51.244;6.774;2024-02-15T12:51:14;4.47;;;2.67;;
12356;SDS011;6243;51.244;6.774;2024-02-15T12:53:41;3.67;;;2.47;;
12356;SDS011;6243;51.244;6.774;2024-02-15T12:56:06;4.73;;;2.23;;
12356;SDS011;6243;51.244;6.774;2024-02-15T12:58:32;3.70;;;2.30;;
12356;SDS011;6243;51.244;6.774;2024-02-15T13:00:58;5.10;;;2.47;;
12356;SDS011;6243;51.244;6.774;2024-02-15T13:03:23;5.13;;;2.00;;
12356;SDS011;6243;51.244;6.774;2024-02-15T13:05:49;5.53;;;2.60;;
12356;SDS011;6243;51.244;6.774;2024-02-15T13:08:16;6.10;;;2.37;;
12356;SDS011;6243;51.244;6.774;2024-02-15T13:10:42;5.70;;;2.33;;
12356;SDS011;6243;51.244;6.774;2024-02-15T13:13:07;3.63;;;2.10;;
12356;SDS011;6243;51.244;6.774;2024-02-15T13:15:33;4.90;;;2.23;;
12356;SDS011;6243;51.244;6.774;2024-02-15T13:17:59;4.17;;;2.00;;
12356;SDS011;6243;51.244;6.774;2024-02-15T13:20:25;3.97;;;2.33;;
12356;SDS011;6243;51.244;6.774;2024-02-15T13:22:51;5.17;;;2.40;;
12356;SDS011;6243;51.244;6.774;2024-02-15T13:25:18;3.27;;;2.20;;
12356;SDS011;6243;51.244;6.774;2024-02-15T13:27:43;5.23;;;2.20;;
12356;SDS011;6243;51.244;6.774;2024-02-15T13:30:09;4.50;;;1.90;;
12356;SDS011;6243;51.244;6.774;2024-02-15T13:32:35;5.27;;;2.23;;
12356;SDS011;6243;51.244;6.774;2024-02-15T13:35:02;3.97;;;2.03;;
12356;SDS011;6243;51.244;6.774;2024-02-15T13:37:28;4.23;;;2.30;;
12356;SDS011;6243;51.244;6.774;2024-02-15T13:39:53;2.77;;;2.20;;
12356;SDS011;6243;51.244;6.774;2024-02-15T13:42:20;5.07;;;2.50;;
12356;SDS011;6243;51.244;6.774;2024-02-15T13:44:45;3.83;;;2.13;;
12356;SDS011;6243;51.244;6.774;2024-02-15T13:47:11;4.73;;;2.37;;
12356;SDS011;6243;51.244;6.774;2024-02-15T13:49:37;6.67;;;2.30;;
12356;SDS011;6243;51.244;6.774;2024-02-15T13:52:03;3.53;;;2.40;;
12356;SDS011;6243;51.244;6.774;2024-02-15T13:54:29;4.43;;;2.13;;
12356;SDS011;6243;51.244;6.774;2024-02-15T13:56:55;3.50;;;2.17;;
12356;SDS011;6243;51.244;6.774;2024-02-15T13:59:22;3.90;;;2.00;;
12356;SDS011;6243;51.244;6.774;2024-02-15T14:01:47;5.47;;;2.10;;
12356;SDS011;6243;51.244;6.774;2024-02-15T14:04:13;3.77;;;2.30;;
12356;SDS011;6243;51.244;6.774;2024-02-15T14:06:39;4.13;;;2.57;;
12356;SDS011;6243;51.244;6.774;2024-02-15T14:09:05;3.00;;;1.73;;
12356;SDS011;6243;51.244;6.774;2024-02-15T14:11:31;4.13;;;2.07;;
12356;SDS011;6243;51.244;6.774;2024-02-15T14:13:57;5.17;;;2.20;;
12356;SDS011;6243;51.244;6.774;2024-02-15T14:16:24;5.07;;;2.27;;
12356;SDS011;6243;51.244;6.774;2024-02-15T14:18:49;6.90;;;2.47;;
12356;SDS011;6243;51.244;6.774;2024-02-15T14:21:15;4.67;;;2.33;;
12356;SDS011;6243;51.244;6.774;2024-02-15T14:23:40;3.10;;;1.90;;
12356;SDS011;6243;51.244;6.774;2024-02-15T14:26:06;5.43;;;2.17;;
12356;SDS011;6243;51.244;6.774;2024-02-15T14:28:31;4.03;;;2.00;;
12356;SDS011;6243;51.244;6.774;2024-02-15T14:30:57;1.93;;;1.63;;
12356;SDS011;6243;51.244;6.774;2024-02-15T14:33:24;4.23;;;2.20;;
12356;SDS011;6243;51.244;6.774;2024-02-15T14:35:51;5.30;;;2.37;;
12356;SDS011;6243;51.244;6.774;2024-02-15T14:38:16;6.10;;;1.80;;
12356;SDS011;6243;51.244;6.774;2024-02-15T14:40:42;2.30;;;1.70;;
12356;SDS011;6243;51.244;6.774;2024-02-15T14:43:09;3.43;;;1.87;;
12356;SDS011;6243;51.244;6.774;2024-02-15T14:45:34;3.17;;;2.00;;
12356;SDS011;6243;51.244;6.774;2024-02-15T14:48:00;2.80;;;1.83;;
12356;SDS011;6243;51.244;6.774;2024-02-15T14:50:27;2.53;;;1.93;;
12356;SDS011;6243;51.244;6.774;2024-02-15T14:52:53;3.40;;;2.00;;
12356;SDS011;6243;51.244;6.774;2024-02-15T14:55:19;4.50;;;2.40;;